createdAt,value
2018-05-06T00:00:05.474Z,3.97
2018-05-06T00:02:38.096Z,6.67
2018-05-06T00:05:10.708Z,6.00
2018-05-06T00:07:43.348Z,7.17
2018-05-06T00:10:15.943Z,9.00
2018-05-06T00:12:48.567Z,8.67
2018-05-06T00:15:21.183Z,14.03
2018-05-06T00:17:53.828Z,6.43
2018-05-06T00:20:26.439Z,8.13
2018-05-06T00:22:59.100Z,7.50
2018-05-06T00:25:31.708Z,11.67
2018-05-06T00:28:04.357Z,8.93
2018-05-06T00:30:36.964Z,8.20
2018-05-06T00:33:09.608Z,7.40
2018-05-06T00:35:42.992Z,5.83
2018-05-06T00:38:15.640Z,7.00
2018-05-06T00:40:49.265Z,7.10
2018-05-06T00:43:21.885Z,9.30
2018-05-06T00:45:54.487Z,7.03
2018-05-06T00:48:27.120Z,7.20
2018-05-06T00:50:59.728Z,8.03
2018-05-06T00:53:32.356Z,5.83
2018-05-06T00:56:04.959Z,14.63
2018-05-06T00:58:37.594Z,8.00
2018-05-06T01:01:10.220Z,4.20
2018-05-06T01:03:42.879Z,7.20
2018-05-06T01:06:15.498Z,5.63
2018-05-06T01:08:48.124Z,7.57
2018-05-06T01:11:21.524Z,7.50
2018-05-06T01:13:54.140Z,6.87
2018-05-06T01:16:27.507Z,6.37
2018-05-06T01:19:00.140Z,5.57
2018-05-06T01:21:32.741Z,7.63
2018-05-06T01:24:05.363Z,6.80
2018-05-06T01:26:37.960Z,6.27
2018-05-06T01:29:10.594Z,9.50
2018-05-06T01:31:43.220Z,5.63
2018-05-06T01:34:15.854Z,7.17
2018-05-06T01:36:48.459Z,5.57
2018-05-06T01:39:22.059Z,8.47
2018-05-06T01:41:54.684Z,7.63
2018-05-06T01:44:27.351Z,9.57
2018-05-06T01:46:59.985Z,6.77
2018-05-06T01:49:32.595Z,7.53
2018-05-06T01:52:05.248Z,12.73
2018-05-06T01:54:38.646Z,4.03
2018-05-06T01:57:11.231Z,5.40
2018-05-06T01:59:43.864Z,7.47
2018-05-06T02:02:16.468Z,5.80
2018-05-06T02:04:49.090Z,10.23
2018-05-06T02:07:21.695Z,8.00
2018-05-06T02:09:54.319Z,6.87
2018-05-06T02:12:26.915Z,9.67
2018-05-06T02:14:59.520Z,9.80
2018-05-06T02:17:32.114Z,7.80
2018-05-06T02:20:04.740Z,4.63
2018-05-06T02:22:37.335Z,5.00
2018-05-06T02:25:09.944Z,8.43
2018-05-06T02:27:42.534Z,6.60
2018-05-06T02:30:15.929Z,5.53
2018-05-06T02:32:48.545Z,10.03
2018-05-06T02:35:21.160Z,9.13
2018-05-06T02:37:53.864Z,12.33
2018-05-06T02:40:26.507Z,10.77
2018-05-06T02:42:59.110Z,8.33
2018-05-06T02:45:32.478Z,6.53
2018-05-06T02:48:05.072Z,7.10
2018-05-06T02:50:37.713Z,7.57
2018-05-06T02:53:10.306Z,6.27
2018-05-06T02:55:42.931Z,7.93
2018-05-06T02:58:15.518Z,6.83
2018-05-06T03:00:48.143Z,8.30
2018-05-06T03:03:20.727Z,5.67
2018-05-06T03:05:55.326Z,9.20
2018-05-06T03:08:27.924Z,11.10
2018-05-06T03:11:00.559Z,9.70
2018-05-06T03:13:33.174Z,4.90
2018-05-06T03:16:06.571Z,12.10
2018-05-06T03:18:39.923Z,9.57
2018-05-06T03:21:12.540Z,8.93
2018-05-06T03:23:45.159Z,10.00
2018-05-06T03:26:18.544Z,7.53
2018-05-06T03:28:51.126Z,8.67
2018-05-06T03:31:23.754Z,14.43
2018-05-06T03:33:57.107Z,8.30
2018-05-06T03:36:29.711Z,4.70
2018-05-06T03:39:02.319Z,8.40
2018-05-06T03:41:34.965Z,9.80
2018-05-06T03:44:07.566Z,10.20
2018-05-06T03:46:40.181Z,12.87
2018-05-06T03:49:12.783Z,11.57
2018-05-06T03:51:45.406Z,9.80
2018-05-06T03:54:18.763Z,9.90
2018-05-06T03:57:03.410Z,18.20
2018-05-06T03:59:47.930Z,13.63
2018-05-06T04:05:26.887Z,9.23
2018-05-06T04:07:59.498Z,9.67
2018-05-06T04:10:32.097Z,12.07
2018-05-06T04:13:04.727Z,9.07
2018-05-06T04:15:37.322Z,10.63
2018-05-06T04:18:09.931Z,9.10
2018-05-06T04:20:43.290Z,12.00
2018-05-06T04:23:15.920Z,26.13
2018-05-06T04:25:48.531Z,23.73
2018-05-06T04:28:21.143Z,19.77
2018-05-06T04:30:53.749Z,33.63
2018-05-06T04:33:27.146Z,24.23
2018-05-06T04:35:59.748Z,25.60
2018-05-06T04:38:32.364Z,22.27
2018-05-06T04:41:05.744Z,15.33
2018-05-06T04:43:38.371Z,14.67
2018-05-06T04:46:10.975Z,7.37
2018-05-06T04:48:43.584Z,26.70
2018-05-06T04:51:16.191Z,22.60
2018-05-06T04:53:48.822Z,13.57
2018-05-06T04:56:21.427Z,26.30
2018-05-06T04:58:54.040Z,11.57
2018-05-06T05:01:26.641Z,22.60
2018-05-06T05:03:59.279Z,18.77
2018-05-06T05:06:31.888Z,18.77
2018-05-06T05:09:05.364Z,12.00
2018-05-06T05:11:37.954Z,14.13
2018-05-06T05:14:23.314Z,20.80
2018-05-06T05:16:55.919Z,10.30
2018-05-06T05:19:28.532Z,9.57
2018-05-06T05:22:01.136Z,6.50
2018-05-06T05:24:33.753Z,12.50
2018-05-06T05:27:06.347Z,9.23
2018-05-06T05:29:38.978Z,7.77
2018-05-06T05:32:11.591Z,10.20
2018-05-06T05:34:44.203Z,6.57
2018-05-06T05:37:17.591Z,11.30
2018-05-06T05:39:51.108Z,9.17
2018-05-06T05:42:24.480Z,7.77
2018-05-06T05:44:57.128Z,8.17
2018-05-06T05:47:30.495Z,8.13
2018-05-06T05:50:03.136Z,7.97
2018-05-06T05:52:35.746Z,5.37
2018-05-06T05:55:08.507Z,5.83
2018-05-06T05:57:41.879Z,5.73
2018-05-06T06:00:14.499Z,7.40
2018-05-06T06:02:47.091Z,7.80
2018-05-06T06:05:19.727Z,9.23
2018-05-06T06:07:52.323Z,6.43
2018-05-06T06:10:25.752Z,12.03
2018-05-06T06:12:58.354Z,4.83
2018-05-06T06:15:31.022Z,6.83
2018-05-06T06:18:03.626Z,12.43
2018-05-06T06:20:36.280Z,12.87
2018-05-06T06:23:08.888Z,5.53
2018-05-06T06:25:41.507Z,5.50
2018-05-06T06:28:14.107Z,6.97
2018-05-06T06:30:47.687Z,5.50
2018-05-06T06:33:20.291Z,7.30
2018-05-06T06:35:52.970Z,7.97
2018-05-06T06:38:25.677Z,5.17
2018-05-06T06:40:58.251Z,6.57
2018-05-06T06:43:30.858Z,7.43
2018-05-06T06:46:03.477Z,6.90
2018-05-06T06:48:36.084Z,5.70
2018-05-06T06:51:17.016Z,5.47
2018-05-06T06:53:49.616Z,7.93
2018-05-06T06:56:22.322Z,5.53
2018-05-06T06:58:55.175Z,7.30
2018-05-06T07:01:29.117Z,5.13
2018-05-06T07:04:01.716Z,4.10
2018-05-06T07:06:34.440Z,6.23
2018-05-06T07:09:07.079Z,5.93
2018-05-06T07:11:39.785Z,4.30
2018-05-06T07:14:12.388Z,5.57
2018-05-06T07:16:45.030Z,5.67
2018-05-06T07:19:18.442Z,4.83
2018-05-06T07:21:51.052Z,5.57
2018-05-06T07:24:23.643Z,4.73
2018-05-06T07:26:56.272Z,9.47
2018-05-06T07:29:28.876Z,3.47
2018-05-06T07:32:01.579Z,3.87
2018-05-06T07:34:34.423Z,4.10
2018-05-06T07:37:07.064Z,4.00
2018-05-06T07:39:39.656Z,3.37
2018-05-06T07:42:12.280Z,6.17
2018-05-06T07:44:44.871Z,3.43
2018-05-06T07:47:17.483Z,3.23
2018-05-06T07:49:50.074Z,6.97
2018-05-06T07:52:22.678Z,7.10
2018-05-06T07:54:55.282Z,5.10
2018-05-06T07:57:27.894Z,4.43
2018-05-06T08:00:00.490Z,4.50
2018-05-06T08:02:33.118Z,6.47
2018-05-06T08:05:05.714Z,4.30
2018-05-06T08:07:38.332Z,4.40
2018-05-06T08:10:11.090Z,5.80
2018-05-06T08:12:43.856Z,4.63
2018-05-06T08:15:17.404Z,4.30
2018-05-06T08:17:50.028Z,5.87
2018-05-06T08:20:22.629Z,11.67
2018-05-06T08:22:55.268Z,2.20
2018-05-06T08:25:27.879Z,4.87
2018-05-06T08:28:01.265Z,6.17
2018-05-06T08:30:34.624Z,4.27
2018-05-06T08:33:07.246Z,2.23
2018-05-06T08:35:39.836Z,6.13
2018-05-06T08:38:13.233Z,3.50
2018-05-06T08:40:45.888Z,5.97
2018-05-06T08:43:18.523Z,5.73
2018-05-06T08:45:51.219Z,6.87
2018-05-06T08:48:23.783Z,6.03
2018-05-06T08:50:56.400Z,4.33
2018-05-06T08:53:29.441Z,7.50
2018-05-06T08:56:02.227Z,4.13
2018-05-06T08:58:34.887Z,6.23
2018-05-06T09:01:07.559Z,5.53
2018-05-06T09:03:40.191Z,8.13
2018-05-06T09:06:12.788Z,2.63
2018-05-06T09:08:46.341Z,5.20
2018-05-06T09:11:18.957Z,7.73
2018-05-06T09:13:51.588Z,3.40
2018-05-06T09:16:24.608Z,2.70
2018-05-06T09:18:57.231Z,4.23
2018-05-06T09:21:29.884Z,3.17
2018-05-06T09:24:02.498Z,2.87
2018-05-06T09:26:35.447Z,3.57
2018-05-06T09:29:08.131Z,3.07
2018-05-06T09:31:40.746Z,3.93
2018-05-06T09:34:13.364Z,3.80
2018-05-06T09:36:45.959Z,4.20
2018-05-06T09:39:18.577Z,3.07
2018-05-06T09:41:51.271Z,2.43
2018-05-06T09:44:26.037Z,12.47
2018-05-06T09:46:59.587Z,53.13
2018-05-06T09:49:32.447Z,33.93
2018-05-06T09:52:05.047Z,5.53
2018-05-06T09:54:38.443Z,4.37
2018-05-06T09:57:11.048Z,3.87
2018-05-06T09:59:43.686Z,3.93
2018-05-06T10:02:16.295Z,1.50
2018-05-06T10:04:48.937Z,3.17
2018-05-06T10:07:21.530Z,2.80
2018-05-06T10:09:54.161Z,4.87
2018-05-06T10:12:26.782Z,4.57
2018-05-06T10:14:59.400Z,8.37
2018-05-06T10:17:31.995Z,5.33
2018-05-06T10:20:04.618Z,6.17
2018-05-06T10:22:37.222Z,50.93
2018-05-06T10:25:09.864Z,33.07
2018-05-06T10:27:42.460Z,5.87
2018-05-06T10:30:15.077Z,7.10
2018-05-06T10:32:47.675Z,9.60
2018-05-06T10:35:20.398Z,6.47
2018-05-06T10:37:53.002Z,2.20
2018-05-06T10:40:26.416Z,6.00
2018-05-06T10:42:59.791Z,2.80
2018-05-06T10:45:32.439Z,2.50
2018-05-06T10:48:05.059Z,2.67
2018-05-06T10:50:37.703Z,2.37
2018-05-06T10:53:10.311Z,3.77
2018-05-06T10:55:42.992Z,3.50
2018-05-06T10:58:15.643Z,1.47
2018-05-06T11:00:48.276Z,2.27
2018-05-06T11:03:20.909Z,2.03
2018-05-06T11:05:53.719Z,2.77
2018-05-06T11:08:26.485Z,2.83
2018-05-06T11:10:59.189Z,3.13
2018-05-06T11:13:31.811Z,3.83
2018-05-06T11:16:04.527Z,2.00
2018-05-06T11:18:37.939Z,4.47
2018-05-06T11:21:10.588Z,3.67
2018-05-06T11:23:48.788Z,2.97
2018-05-06T11:26:21.472Z,3.87
2018-05-06T11:28:54.040Z,5.47
2018-05-06T11:31:26.663Z,3.53
2018-05-06T11:33:59.338Z,3.70
2018-05-06T11:36:32.015Z,7.30
2018-05-06T11:39:05.459Z,2.50
2018-05-06T11:41:38.080Z,19.70
2018-05-06T11:44:10.677Z,4.67
2018-05-06T11:46:43.291Z,4.63
2018-05-06T11:49:16.690Z,2.53
2018-05-06T11:51:49.333Z,4.47
2018-05-06T11:54:21.936Z,3.37
2018-05-06T11:56:54.579Z,2.93
2018-05-06T11:59:27.942Z,2.00
2018-05-06T12:02:00.556Z,3.50
2018-05-06T12:04:33.155Z,2.80
2018-05-06T12:07:05.798Z,3.07
2018-05-06T12:09:39.316Z,1.67
2018-05-06T12:12:11.981Z,2.57
2018-05-06T12:14:44.590Z,3.13
2018-05-06T12:17:17.199Z,2.33
2018-05-06T12:19:49.797Z,3.37
2018-05-06T12:22:22.421Z,3.93
2018-05-06T12:24:55.023Z,2.67
2018-05-06T12:27:27.635Z,3.20
2018-05-06T12:30:00.234Z,3.60
2018-05-06T12:32:32.857Z,2.27
2018-05-06T12:35:05.500Z,1.23
2018-05-06T12:37:38.141Z,1.67
2018-05-06T12:40:10.749Z,1.63
2018-05-06T12:42:43.388Z,1.80
2018-05-06T12:45:15.988Z,3.30
2018-05-06T12:47:48.618Z,2.10
2018-05-06T12:50:21.214Z,3.80
2018-05-06T12:52:53.826Z,2.20
2018-05-06T12:55:27.192Z,2.43
2018-05-06T12:57:59.816Z,1.80
2018-05-06T13:00:32.422Z,1.70
2018-05-06T13:03:05.807Z,2.63
2018-05-06T13:05:38.419Z,2.00
2018-05-06T13:08:11.812Z,4.23
2018-05-06T13:10:44.412Z,3.03
2018-05-06T13:13:17.027Z,3.33
2018-05-06T13:15:49.629Z,3.87
2018-05-06T13:18:22.266Z,3.97
2018-05-06T13:20:54.870Z,1.33
2018-05-06T13:23:27.482Z,2.57
2018-05-06T13:26:00.847Z,2.93
2018-05-06T13:28:33.473Z,2.77
2018-05-06T13:31:06.062Z,2.17
2018-05-06T13:33:39.468Z,2.30
2018-05-06T13:36:12.087Z,3.83
2018-05-06T13:38:44.722Z,9.30
2018-05-06T13:41:17.319Z,1.87
2018-05-06T13:43:49.960Z,2.60
2018-05-06T13:46:22.562Z,2.53
2018-05-06T13:48:55.195Z,2.23
2018-05-06T13:51:27.804Z,2.87
2018-05-06T13:54:00.447Z,3.17
2018-05-06T13:56:33.062Z,3.00
2018-05-06T13:59:05.690Z,1.73
2018-05-06T14:01:39.055Z,4.83
2018-05-06T14:04:11.668Z,1.97
2018-05-06T14:06:44.264Z,3.10
2018-05-06T14:09:16.884Z,2.33
2018-05-06T14:11:49.492Z,3.57
2018-05-06T14:14:22.156Z,6.20
2018-05-06T14:16:54.750Z,2.80
2018-05-06T14:19:27.378Z,2.30
2018-05-06T14:21:59.995Z,7.17
2018-05-06T14:24:32.608Z,3.40
2018-05-06T14:27:05.207Z,2.07
2018-05-06T14:29:38.591Z,2.83
2018-05-06T14:32:11.186Z,2.40
2018-05-06T14:34:43.827Z,2.13
2018-05-06T14:37:16.419Z,4.60
2018-05-06T14:39:49.047Z,4.73
2018-05-06T14:42:21.637Z,2.20
2018-05-06T14:44:54.262Z,4.43
2018-05-06T14:47:38.639Z,3.33
2018-05-06T14:50:12.019Z,1.70
2018-05-06T14:52:44.622Z,2.63
2018-05-06T14:55:17.251Z,1.97
2018-05-06T14:57:49.854Z,2.07
2018-05-06T15:00:22.471Z,1.87
2018-05-06T15:02:55.137Z,2.60
2018-05-06T15:05:27.755Z,2.30
2018-05-06T15:08:00.358Z,3.33
2018-05-06T15:10:32.997Z,2.50
2018-05-06T15:13:05.603Z,1.47
2018-05-06T15:15:38.249Z,2.10
2018-05-06T15:18:10.851Z,2.43
2018-05-06T15:20:43.492Z,3.03
2018-05-06T15:23:16.095Z,1.57
2018-05-06T15:25:48.731Z,4.00
2018-05-06T15:28:22.090Z,2.00
2018-05-06T15:30:54.722Z,9.73
2018-05-06T15:33:28.156Z,2.10
2018-05-06T15:36:00.723Z,3.43
2018-05-06T15:38:33.330Z,1.83
2018-05-06T15:41:06.051Z,1.77
2018-05-06T15:43:38.630Z,2.93
2018-05-06T15:46:11.279Z,1.67
2018-05-06T15:48:43.880Z,1.63
2018-05-06T15:51:17.263Z,3.07
2018-05-06T15:53:49.935Z,2.47
2018-05-06T15:56:22.555Z,2.30
2018-05-06T15:58:55.146Z,1.13
2018-05-06T16:01:27.762Z,1.57
2018-05-06T16:04:11.847Z,4.03
2018-05-06T16:06:44.456Z,4.90
2018-05-06T16:09:17.048Z,1.70
2018-05-06T16:11:49.680Z,1.63
2018-05-06T16:14:22.289Z,12.90
2018-05-06T16:16:55.678Z,8.13
2018-05-06T16:19:28.292Z,3.03
2018-05-06T16:22:01.675Z,3.07
2018-05-06T16:24:34.307Z,16.53
2018-05-06T16:27:08.882Z,3.53
2018-05-06T16:29:41.523Z,3.10
2018-05-06T16:32:14.123Z,2.43
2018-05-06T16:34:46.718Z,2.20
2018-05-06T16:37:19.343Z,2.17
2018-05-06T16:39:51.934Z,3.37
2018-05-06T16:42:24.556Z,1.30
2018-05-06T16:44:57.155Z,3.43
2018-05-06T16:47:30.535Z,1.90
2018-05-06T16:50:03.139Z,1.87
2018-05-06T16:52:35.756Z,2.00
2018-05-06T16:55:09.115Z,2.57
2018-05-06T16:57:41.763Z,5.00
2018-05-06T17:00:14.378Z,1.73
2018-05-06T17:02:47.760Z,2.13
2018-05-06T17:05:21.201Z,2.33
2018-05-06T17:07:54.578Z,3.77
2018-05-06T17:10:27.934Z,3.37
2018-05-06T17:13:00.543Z,3.00
2018-05-06T17:15:33.139Z,3.10
2018-05-06T17:18:05.761Z,2.60
2018-05-06T17:20:39.191Z,3.10
2018-05-06T17:23:11.836Z,2.97
2018-05-06T17:25:44.436Z,1.63
2018-05-06T17:28:17.168Z,3.53
2018-05-06T17:30:49.788Z,2.47
2018-05-06T17:33:22.403Z,3.50
2018-05-06T17:35:55.015Z,6.83
2018-05-06T17:38:27.635Z,5.37
2018-05-06T17:41:00.227Z,2.57
2018-05-06T17:43:32.836Z,3.00
2018-05-06T17:46:07.682Z,2.50
2018-05-06T17:48:40.335Z,1.57
2018-05-06T17:51:12.927Z,2.53
2018-05-06T17:53:45.560Z,4.60
2018-05-06T17:56:18.167Z,3.43
2018-05-06T17:58:50.867Z,3.53
2018-05-06T18:01:23.469Z,2.53
2018-05-06T18:03:56.103Z,1.70
2018-05-06T18:06:28.711Z,3.17
2018-05-06T18:09:01.319Z,5.40
2018-05-06T18:11:33.919Z,2.20
2018-05-06T18:14:06.543Z,4.80
2018-05-06T18:16:39.157Z,2.80
2018-05-06T18:19:11.788Z,4.33
2018-05-06T18:21:44.379Z,5.57
2018-05-06T18:24:17.055Z,4.43
2018-05-06T18:26:49.654Z,3.10
2018-05-06T18:29:22.267Z,6.23
2018-05-06T18:31:54.864Z,3.13
2018-05-06T18:34:27.594Z,5.07
2018-05-06T18:37:00.245Z,8.93
2018-05-06T18:39:33.719Z,8.10
2018-05-06T18:42:06.356Z,14.07
2018-05-06T18:44:38.979Z,20.60
2018-05-06T18:47:11.567Z,6.97
2018-05-06T18:49:44.223Z,10.17
2018-05-06T18:52:16.826Z,7.77
2018-05-06T18:54:49.443Z,13.47
2018-05-06T18:57:22.075Z,8.07
2018-05-06T18:59:54.676Z,11.87
2018-05-06T19:02:27.276Z,17.97
2018-05-06T19:04:59.891Z,9.07
2018-05-06T19:07:33.267Z,20.13
2018-05-06T19:10:05.935Z,15.57
2018-05-06T19:12:38.543Z,15.07
2018-05-06T19:15:11.166Z,5.73
2018-05-06T19:17:43.761Z,9.03
2018-05-06T19:20:16.391Z,24.10
2018-05-06T19:22:48.985Z,14.10
2018-05-06T19:25:21.604Z,5.67
2018-05-06T19:27:54.199Z,9.57
2018-05-06T19:30:26.815Z,4.90
2018-05-06T19:33:00.230Z,7.93
2018-05-06T19:35:32.822Z,4.03
2018-05-06T19:38:05.447Z,6.57
2018-05-06T19:40:38.063Z,4.70
2018-05-06T19:43:10.668Z,3.97
2018-05-06T19:45:43.309Z,7.43
2018-05-06T19:48:15.922Z,4.23
2018-05-06T19:50:48.535Z,4.70
2018-05-06T19:53:21.129Z,6.03
2018-05-06T19:55:53.863Z,3.63
2018-05-06T19:58:27.224Z,3.57
2018-05-06T20:00:59.850Z,6.53
2018-05-06T20:03:33.206Z,6.80
2018-05-06T20:06:05.831Z,6.83
2018-05-06T20:08:38.483Z,8.87
2018-05-06T20:11:11.092Z,12.03
2018-05-06T20:13:43.679Z,7.07
2018-05-06T20:16:16.373Z,6.67
2018-05-06T20:18:48.956Z,6.37
2018-05-06T20:21:21.631Z,5.20
2018-05-06T20:23:54.251Z,4.87
2018-05-06T20:26:26.868Z,5.90
2018-05-06T20:28:59.471Z,6.00
2018-05-06T20:31:32.110Z,6.73
2018-05-06T20:34:04.708Z,6.50
2018-05-06T20:36:37.480Z,6.17
2018-05-06T20:39:10.078Z,4.20
2018-05-06T20:41:42.719Z,6.40
2018-05-06T20:44:15.323Z,8.97
2018-05-06T20:46:48.744Z,9.17
2018-05-06T20:49:21.348Z,5.43
2018-05-06T20:51:53.993Z,6.50
2018-05-06T20:54:26.595Z,4.97
2018-05-06T20:56:59.219Z,5.40
2018-05-06T20:59:31.819Z,4.70
2018-05-06T21:02:04.504Z,4.00
2018-05-06T21:04:37.129Z,3.97
2018-05-06T21:07:09.759Z,3.13
2018-05-06T21:09:42.351Z,3.30
2018-05-06T21:12:14.975Z,6.50
2018-05-06T21:14:47.567Z,3.53
2018-05-06T21:17:20.176Z,7.97
2018-05-06T21:19:52.770Z,4.90
2018-05-06T21:22:25.399Z,5.53
2018-05-06T21:24:58.037Z,3.27
2018-05-06T21:27:30.712Z,4.47
2018-05-06T21:30:03.260Z,4.83
2018-05-06T21:32:35.879Z,4.07
2018-05-06T21:35:09.275Z,3.00
2018-05-06T21:37:41.940Z,7.60
2018-05-06T21:40:14.534Z,4.93
2018-05-06T21:42:47.154Z,5.47
2018-05-06T21:45:19.750Z,3.47
2018-05-06T21:47:53.143Z,5.90
2018-05-06T21:50:25.747Z,4.60
2018-05-06T21:52:58.461Z,5.57
2018-05-06T21:55:31.023Z,4.87
2018-05-06T21:58:03.716Z,5.20
2018-05-06T22:00:36.419Z,3.57
2018-05-06T22:03:09.035Z,6.33
2018-05-06T22:05:42.410Z,3.23
2018-05-06T22:08:15.023Z,3.93
2018-05-06T22:10:48.395Z,4.83
2018-05-06T22:13:21.029Z,3.23
2018-05-06T22:15:53.634Z,3.63
2018-05-06T22:18:26.266Z,3.53
2018-05-06T22:20:58.866Z,2.80
2018-05-06T22:23:31.490Z,4.03
2018-05-06T22:26:04.079Z,3.40
2018-05-06T22:28:37.540Z,3.97
2018-05-06T22:31:10.220Z,2.77
2018-05-06T22:33:43.623Z,3.23
2018-05-06T22:36:16.239Z,5.43
2018-05-06T22:38:48.863Z,3.87
2018-05-06T22:41:22.247Z,2.80
2018-05-06T22:43:54.938Z,4.73
2018-05-06T22:46:27.542Z,5.53
2018-05-06T22:49:00.154Z,3.97
2018-05-06T22:51:32.757Z,5.50
2018-05-06T22:54:05.381Z,4.20
2018-05-06T22:56:37.995Z,2.33
2018-05-06T22:59:10.632Z,4.33
2018-05-06T23:01:43.990Z,5.97
2018-05-06T23:04:16.603Z,5.83
2018-05-06T23:06:49.191Z,11.67
2018-05-06T23:09:21.803Z,6.77
2018-05-06T23:11:54.401Z,4.40
2018-05-06T23:14:27.793Z,2.77
2018-05-06T23:17:00.392Z,7.63
2018-05-06T23:19:33.889Z,3.40
2018-05-06T23:22:06.483Z,6.00
2018-05-06T23:24:39.107Z,4.70
2018-05-06T23:27:11.704Z,4.43
2018-05-06T23:29:44.346Z,6.27
2018-05-06T23:32:16.943Z,5.00
2018-05-06T23:34:49.579Z,6.30
2018-05-06T23:37:22.183Z,3.03
2018-05-06T23:39:54.808Z,2.53
2018-05-06T23:42:27.402Z,5.93
2018-05-06T23:45:00.054Z,3.83
2018-05-06T23:47:33.420Z,3.67
2018-05-06T23:50:06.819Z,3.30
2018-05-06T23:52:39.419Z,2.50
2018-05-06T23:55:13.597Z,2.60
2018-05-06T23:57:46.202Z,6.17
